Time;durP1;ratioP1;P1;durP2;ratioP2;P2;SDS_P1;SDS_P2;PMS_P1;PMS_P2;Temp;Humidity;BMP_temperature;BMP_pressure;BME280_temperature;BME280_humidity;BME280_pressure;Samples;Min_cycle;Max_cycle;Signal;HPM_P1;HPM_P2
2023/09/06 00:00:14;;;;;;;1999.90;999.90;;;13.20;79.50;;;;;;5090068;28;20101;-74
2023/09/06 00:02:40;;;;;;;1999.90;999.90;;;13.10;79.50;;;;;;5087167;28;20028;-74
2023/09/06 00:05:06;;;;;;;1999.90;999.90;;;13.10;79.80;;;;;;5090710;28;20051;-75
2023/09/06 00:07:32;;;;;;;1999.90;999.90;;;13.00;79.80;;;;;;5087560;28;20156;-73
2023/09/06 00:09:57;;;;;;;1999.90;999.90;;;12.90;80.30;;;;;;5086828;28;20028;-74
2023/09/06 00:12:23;;;;;;;1999.90;999.90;;;12.90;80.80;;;;;;5087879;28;20469;-75
2023/09/06 00:14:49;;;;;;;1999.90;999.90;;;12.90;81.20;;;;;;5086428;28;20532;-75
2023/09/06 00:17:14;;;;;;;1999.90;999.90;;;12.90;81.70;;;;;;5087258;28;20555;-74
2023/09/06 00:19:40;;;;;;;1999.90;999.90;;;12.90;81.20;;;;;;5082627;28;20055;-74
2023/09/06 00:22:05;;;;;;;1999.90;999.90;;;12.90;81.20;;;;;;5090453;28;20052;-74
2023/09/06 00:24:31;;;;;;;1999.90;999.90;;;12.90;81.50;;;;;;5089059;28;20020;-74
2023/09/06 00:26:58;;;;;;;1999.90;999.90;;;13.00;81.30;;;;;;5083655;28;20044;-74
2023/09/06 00:29:24;;;;;;;1999.90;999.90;;;13.00;81.40;;;;;;5084079;28;20437;-74
2023/09/06 00:31:49;;;;;;;1999.90;999.90;;;13.10;81.20;;;;;;5084838;28;20028;-74
2023/09/06 00:34:16;;;;;;;1999.90;999.90;;;13.10;80.80;;;;;;5086370;28;20048;-74
2023/09/06 00:36:42;;;;;;;1999.90;999.90;;;13.10;80.60;;;;;;5089708;28;20093;-75
2023/09/06 00:39:09;;;;;;;1999.90;999.90;;;13.10;80.90;;;;;;5083395;28;20020;-74
2023/09/06 00:41:40;;;;;;;1999.90;999.90;;;13.00;81.00;;;;;;5080528;28;20040;-74
2023/09/06 00:44:08;;;;;;;1999.90;999.90;;;13.10;81.30;;;;;;5086796;28;20517;-74
2023/09/06 00:46:34;;;;;;;1999.90;999.90;;;13.20;80.70;;;;;;5087084;28;20039;-74
2023/09/06 00:49:00;;;;;;;1999.90;999.90;;;13.10;81.00;;;;;;5085645;28;20075;-74
2023/09/06 00:51:26;;;;;;;1999.90;999.90;;;13.10;80.80;;;;;;5088950;28;20064;-75
2023/09/06 00:53:52;;;;;;;1999.90;999.90;;;13.10;80.80;;;;;;5082117;28;20062;-73
2023/09/06 00:56:18;;;;;;;1999.90;999.90;;;13.00;81.00;;;;;;5088320;28;20440;-74
2023/09/06 00:58:45;;;;;;;1999.90;999.90;;;13.00;81.40;;;;;;5086156;28;20498;-74
2023/09/06 01:01:11;;;;;;;1999.90;999.90;;;13.00;81.50;;;;;;5083449;28;20036;-74
2023/09/06 01:03:40;;;;;;;1999.90;999.90;;;13.00;81.90;;;;;;5084771;28;20051;-73
2023/09/06 01:06:16;;;;;;;1999.90;999.90;;;13.00;81.90;;;;;;5083176;28;20050;-73
2023/09/06 01:08:52;;;;;;;1999.90;999.90;;;12.90;82.10;;;;;;5085510;28;20119;-74
2023/09/06 01:11:21;;;;;;;1999.90;999.90;;;13.00;81.60;;;;;;5087802;28;20036;-73
2023/09/06 01:13:48;;;;;;;1999.90;999.90;;;12.90;81.90;;;;;;5083962;28;20039;-74
2023/09/06 01:16:20;;;;;;;1999.90;999.90;;;12.80;82.10;;;;;;5085629;28;20387;-74
2023/09/06 01:18:45;;;;;;;1999.90;999.90;;;12.80;82.00;;;;;;5084924;28;20032;-74
2023/09/06 01:21:15;;;;;;;1999.90;999.90;;;12.60;81.90;;;;;;5088577;28;20028;-75
2023/09/06 01:23:41;;;;;;;1999.90;999.90;;;12.60;81.90;;;;;;5084778;28;20073;-74
2023/09/06 01:26:07;;;;;;;1999.90;999.90;;;12.40;83.30;;;;;;5082810;28;20055;-75
2023/09/06 01:28:34;;;;;;;1999.90;999.90;;;12.40;83.00;;;;;;5088410;28;20501;-73
2023/09/06 01:31:00;;;;;;;1999.90;999.90;;;12.50;82.90;;;;;;5085596;28;20036;-74
2023/09/06 01:33:28;;;;;;;1999.90;999.90;;;12.40;83.00;;;;;;5088907;28;20028;-73
2023/09/06 01:35:54;;;;;;;1999.90;999.90;;;12.30;83.00;;;;;;5087332;28;20035;-74
2023/09/06 01:38:20;;;;;;;1999.90;999.90;;;12.20;83.50;;;;;;5084090;28;20032;-74
2023/09/06 01:40:46;;;;;;;1999.90;999.90;;;12.10;83.80;;;;;;5089707;28;20076;-74
2023/09/06 01:43:12;;;;;;;1999.90;999.90;;;12.10;84.10;;;;;;5087027;28;20047;-74
2023/09/06 01:45:44;;;;;;;1999.90;999.90;;;12.10;84.20;;;;;;5085611;28;20016;-74
2023/09/06 01:48:10;;;;;;;1999.90;999.90;;;12.10;84.00;;;;;;5087300;28;20028;-74
2023/09/06 01:50:36;;;;;;;1999.90;999.90;;;12.10;84.30;;;;;;5085780;28;20036;-75
2023/09/06 01:53:01;;;;;;;1999.90;999.90;;;12.10;84.50;;;;;;5088677;28;20031;-74
2023/09/06 01:55:27;;;;;;;1999.90;999.90;;;12.10;84.40;;;;;;5082605;28;20062;-73
2023/09/06 01:57:52;;;;;;;1999.90;999.90;;;12.10;83.90;;;;;;5082481;28;20039;-76
2023/09/06 02:02:46;;;;;;;1999.90;999.90;;;12.00;84.10;;;;;;5081579;28;20032;-74
2023/09/06 02:05:13;;;;;;;1999.90;999.90;;;11.80;83.90;;;;;;5083351;28;20030;-74
2023/09/06 02:07:38;;;;;;;1999.90;999.90;;;11.80;84.00;;;;;;5089730;28;20074;-74
2023/09/06 02:10:04;;;;;;;1999.90;999.90;;;11.80;84.90;;;;;;5084335;28;20052;-73
2023/09/06 02:12:30;;;;;;;1999.90;999.90;;;11.80;84.80;;;;;;5084508;28;20043;-76
2023/09/06 02:14:56;;;;;;;1999.90;999.90;;;11.80;85.00;;;;;;5081448;28;20162;-74
2023/09/06 02:17:24;;;;;;;1999.90;999.90;;;11.70;84.80;;;;;;5085077;28;20040;-74
2023/09/06 02:19:50;;;;;;;1999.90;999.90;;;11.70;85.50;;;;;;5082142;28;20051;-74
2023/09/06 02:22:16;;;;;;;1999.90;999.90;;;11.70;85.80;;;;;;5083130;28;20176;-73
2023/09/06 02:24:41;;;;;;;1999.90;999.90;;;11.70;85.40;;;;;;5085365;28;20036;-74
2023/09/06 02:27:10;;;;;;;1999.90;999.90;;;11.80;85.50;;;;;;5085950;28;20043;-74
2023/09/06 02:29:36;;;;;;;1999.90;999.90;;;11.80;85.60;;;;;;5087043;28;20565;-74
2023/09/06 02:32:01;;;;;;;1999.90;999.90;;;11.80;85.40;;;;;;5086348;28;20043;-74
2023/09/06 02:34:27;;;;;;;1999.90;999.90;;;11.80;85.00;;;;;;5083771;28;20037;-73
2023/09/06 02:36:52;;;;;;;1999.90;999.90;;;11.90;84.90;;;;;;5086278;28;20032;-75
2023/09/06 02:39:18;;;;;;;1999.90;999.90;;;11.80;85.00;;;;;;5078235;28;20036;-74
2023/09/06 02:41:45;;;;;;;1999.90;999.90;;;11.80;85.20;;;;;;5083210;28;20456;-74
2023/09/06 02:44:10;;;;;;;1999.90;999.90;;;11.80;85.70;;;;;;5084609;28;20040;-73
2023/09/06 02:46:36;;;;;;;1999.90;999.90;;;11.80;85.60;;;;;;5084647;28;20048;-74
2023/09/06 02:49:11;;;;;;;1999.90;999.90;;;11.80;85.30;;;;;;5079986;28;20032;-74
2023/09/06 02:51:43;;;;;;;1999.90;999.90;;;11.90;85.20;;;;;;5083603;28;20506;-74
2023/09/06 02:54:12;;;;;;;1999.90;999.90;;;11.90;85.00;;;;;;5084422;28;20067;-74
2023/09/06 02:56:38;;;;;;;1999.90;999.90;;;11.90;84.80;;;;;;5084140;28;20040;-75
2023/09/06 02:59:15;;;;;;;1999.90;999.90;;;11.80;85.20;;;;;;5077705;28;20044;-74
2023/09/06 03:01:44;;;;;;;1999.90;999.90;;;11.80;85.30;;;;;;5085916;28;20039;-74
2023/09/06 03:04:14;;;;;;;1999.90;999.90;;;11.90;85.10;;;;;;5087658;28;20038;-74
2023/09/06 03:06:43;;;;;;;1999.90;999.90;;;11.90;84.80;;;;;;5086948;28;20024;-74
2023/09/06 03:09:12;;;;;;;1999.90;999.90;;;11.90;84.60;;;;;;5087614;28;20040;-74
2023/09/06 03:11:37;;;;;;;1999.90;999.90;;;11.90;85.00;;;;;;5084392;28;20036;-74
2023/09/06 03:14:04;;;;;;;1999.90;999.90;;;11.90;85.00;;;;;;5079037;28;20148;-75
2023/09/06 03:16:38;;;;;;;1999.90;999.90;;;11.90;85.30;;;;;;5086027;28;20028;-74
2023/09/06 03:19:10;;;;;;;1999.90;999.90;;;11.80;85.10;;;;;;5084296;28;20036;-74
2023/09/06 03:21:38;;;;;;;1999.90;999.90;;;11.80;85.60;;;;;;5082921;28;20063;-74
2023/09/06 03:24:11;;;;;;;1999.90;999.90;;;11.80;85.50;;;;;;5086735;28;20034;-76
2023/09/06 03:26:40;;;;;;;1999.90;999.90;;;11.80;85.40;;;;;;5087009;28;20498;-74
2023/09/06 03:29:10;;;;;;;1999.90;999.90;;;11.80;85.40;;;;;;5081895;28;20055;-73
2023/09/06 03:31:42;;;;;;;1999.90;999.90;;;11.80;85.50;;;;;;5085736;28;20039;-74
2023/09/06 03:34:13;;;;;;;1999.90;999.90;;;11.60;85.50;;;;;;5082872;28;20062;-74
2023/09/06 03:36:41;;;;;;;;;;;11.60;86.00;;;;;;5083159;28;20025;-74
2023/09/06 03:39:12;;;;;;;1999.90;999.90;;;11.60;86.30;;;;;;5076192;28;19920;-74
2023/09/06 03:41:42;;;;;;;1999.90;999.90;;;11.60;86.60;;;;;;5086672;28;20090;-74
2023/09/06 03:44:08;;;;;;;1999.90;999.90;;;11.60;87.50;;;;;;5078822;28;20044;-74
2023/09/06 03:46:34;;;;;;;1999.90;999.90;;;11.60;86.90;;;;;;5078891;28;20052;-75
2023/09/06 03:49:05;;;;;;;1999.90;999.90;;;11.60;86.90;;;;;;5082103;28;20036;-74
2023/09/06 03:51:32;;;;;;;1999.90;999.90;;;11.50;86.90;;;;;;5080696;28;20546;-75
2023/09/06 03:53:59;;;;;;;1999.90;999.90;;;11.40;87.00;;;;;;5084053;28;20048;-74
2023/09/06 03:56:26;;;;;;;1999.90;999.90;;;11.40;87.20;;;;;;5082953;28;20034;-76
2023/09/06 03:58:53;;;;;;;1999.90;999.90;;;11.40;87.40;;;;;;5085652;28;20051;-74
2023/09/06 04:01:19;;;;;;;1999.90;999.90;;;11.40;87.50;;;;;;5087158;28;20032;-74
2023/09/06 04:03:47;;;;;;;1999.90;999.90;;;11.40;87.30;;;;;;5080041;28;20089;-75
2023/09/06 04:06:15;;;;;;;1999.90;999.90;;;11.40;87.20;;;;;;5086519;28;20024;-74
2023/09/06 04:08:41;;;;;;;1999.90;999.90;;;11.30;87.00;;;;;;5086602;28;20095;-74
2023/09/06 04:11:09;;;;;;;1999.90;999.90;;;11.30;87.40;;;;;;5088073;28;20094;-74
2023/09/06 04:13:35;;;;;;;1999.90;999.90;;;11.30;87.40;;;;;;5083511;28;20030;-74
2023/09/06 04:16:01;;;;;;;1999.90;999.90;;;11.20;87.20;;;;;;5083481;28;20075;-74
2023/09/06 04:18:28;;;;;;;1999.90;999.90;;;11.20;87.80;;;;;;5091369;28;20032;-76
2023/09/06 04:20:53;;;;;;;1999.90;999.90;;;11.20;87.70;;;;;;5085890;28;20031;-77
2023/09/06 04:23:19;;;;;;;1999.90;999.90;;;11.10;87.70;;;;;;5086640;28;20036;-75
2023/09/06 04:25:45;;;;;;;1999.90;999.90;;;11.10;88.30;;;;;;5085221;28;20397;-74
2023/09/06 04:28:12;;;;;;;1999.90;999.90;;;11.10;88.30;;;;;;5085810;28;20032;-74
2023/09/06 04:30:40;;;;;;;1999.90;999.90;;;11.10;88.50;;;;;;5085083;28;20032;-74
2023/09/06 04:33:10;;;;;;;1999.90;999.90;;;11.10;88.60;;;;;;5088129;28;20107;-74
2023/09/06 04:35:43;;;;;;;1999.90;999.90;;;11.10;88.80;;;;;;5086324;28;20031;-74
2023/09/06 04:38:11;;;;;;;1999.90;999.90;;;11.10;88.80;;;;;;5088332;28;20499;-74
2023/09/06 04:40:37;;;;;;;1999.90;999.90;;;11.00;88.80;;;;;;5091847;28;20059;-74
2023/09/06 04:43:04;;;;;;;1999.90;999.90;;;11.00;89.10;;;;;;5085810;28;20036;-74
2023/09/06 04:45:29;;;;;;;1999.90;999.90;;;11.00;88.80;;;;;;5085952;28;20106;-75
2023/09/06 04:47:56;;;;;;;1999.90;999.90;;;11.00;88.70;;;;;;5085617;28;20487;-75
2023/09/06 04:50:22;;;;;;;1999.90;999.90;;;11.00;88.80;;;;;;5088922;28;20505;-74
2023/09/06 04:52:52;;;;;;;1999.90;999.90;;;11.00;89.10;;;;;;5086334;28;20044;-74
2023/09/06 04:55:19;;;;;;;;;;;11.00;89.20;;;;;;5083741;28;20123;-74
2023/09/06 04:57:49;;;;;;;1999.90;999.90;;;11.00;89.20;;;;;;5087350;28;19908;-74
2023/09/06 05:00:23;;;;;;;1999.90;999.90;;;11.00;89.10;;;;;;5083068;28;20035;-74
2023/09/06 05:02:53;;;;;;;1999.90;999.90;;;11.10;89.00;;;;;;5086498;28;20560;-74
2023/09/06 05:05:21;;;;;;;1999.90;999.90;;;11.10;88.70;;;;;;5082529;28;20210;-72
2023/09/06 05:07:46;;;;;;;1999.90;999.90;;;11.10;88.70;;;;;;5083903;28;20445;-73
2023/09/06 05:10:12;;;;;;;1999.90;999.90;;;11.20;88.10;;;;;;5080195;28;20035;-75
2023/09/06 05:12:38;;;;;;;1999.90;999.90;;;11.10;87.80;;;;;;5086792;28;20131;-75
2023/09/06 05:15:05;;;;;;;1999.90;999.90;;;11.10;88.00;;;;;;5083761;28;20115;-75
2023/09/06 05:17:32;;;;;;;1999.90;999.90;;;11.10;88.10;;;;;;5082142;28;20444;-76
2023/09/06 05:20:25;;;;;;;1999.90;999.90;;;11.00;88.20;;;;;;5082048;28;20067;-75
2023/09/06 05:22:51;;;;;;;1999.90;999.90;;;11.10;88.50;;;;;;5081398;28;20046;-76
2023/09/06 05:25:16;;;;;;;1999.90;999.90;;;11.10;88.30;;;;;;5082561;28;20036;-74
2023/09/06 05:27:42;;;;;;;1999.90;999.90;;;11.20;88.30;;;;;;5078179;28;20028;-74
2023/09/06 05:30:08;;;;;;;1999.90;999.90;;;11.20;88.20;;;;;;5087056;28;20039;-73
2023/09/06 05:32:34;;;;;;;1999.90;999.90;;;11.20;88.50;;;;;;5081921;28;20784;-75
2023/09/06 05:34:59;;;;;;;1999.90;999.90;;;11.30;88.50;;;;;;5088243;28;20039;-73
2023/09/06 05:37:25;;;;;;;1999.90;999.90;;;11.40;88.40;;;;;;5082926;28;20070;-72
2023/09/06 05:39:51;;;;;;;1999.90;999.90;;;11.50;87.90;;;;;;5083431;28;20024;-72
2023/09/06 05:42:17;;;;;;;1999.90;999.90;;;11.50;88.00;;;;;;5084404;28;20059;-72
2023/09/06 05:44:43;;;;;;;1999.90;999.90;;;11.60;87.80;;;;;;5080702;28;20089;-77
2023/09/06 05:47:09;;;;;;;1999.90;999.90;;;11.60;87.90;;;;;;5082301;28;20116;-79
2023/09/06 05:49:36;;;;;;;1999.90;999.90;;;11.70;88.10;;;;;;5080482;28;20031;-83
2023/09/06 05:52:02;;;;;;;1999.90;999.90;;;11.80;87.80;;;;;;5083563;28;20770;-83
2023/09/06 05:54:28;;;;;;;1999.90;999.90;;;11.90;87.30;;;;;;5086720;28;20143;-84
2023/09/06 05:56:53;;;;;;;1999.90;999.90;;;12.10;87.20;;;;;;5083448;28;20115;-80
2023/09/06 05:59:19;;;;;;;1999.90;999.90;;;12.10;86.60;;;;;;5088342;28;20052;-78
2023/09/06 06:01:45;;;;;;;1999.90;999.90;;;12.10;87.10;;;;;;5083804;28;20486;-80
2023/09/06 06:04:11;;;;;;;1999.90;999.90;;;12.20;87.00;;;;;;5084015;28;20412;-79
2023/09/06 06:06:37;;;;;;;1999.90;999.90;;;12.20;87.00;;;;;;5083236;28;20608;-79
2023/09/06 06:09:11;;;;;;;1999.90;999.90;;;12.20;86.50;;;;;;5083414;28;20046;-78
2023/09/06 06:11:37;;;;;;;1999.90;999.90;;;12.40;86.50;;;;;;5078598;28;20040;-79
2023/09/06 06:14:04;;;;;;;1999.90;999.90;;;12.40;86.70;;;;;;5077354;28;20124;-80
2023/09/06 06:16:29;;;;;;;1999.90;999.90;;;12.40;85.70;;;;;;5078250;28;20072;-79
2023/09/06 06:18:56;;;;;;;1999.90;999.90;;;12.50;84.70;;;;;;5088633;28;20447;-81
2023/09/06 06:21:22;;;;;;;1999.90;999.90;;;12.70;84.40;;;;;;5085200;28;20752;-81
2023/09/06 06:23:48;;;;;;;1999.90;999.90;;;12.70;84.10;;;;;;5084618;28;20085;-80
2023/09/06 06:26:19;;;;;;;1999.90;999.90;;;12.80;83.30;;;;;;5078516;28;20024;-79
2023/09/06 06:28:44;;;;;;;;;;;12.80;83.00;;;;;;5087219;28;20051;-83
2023/09/06 06:31:10;;;;;;;1999.90;999.90;;;12.80;83.70;;;;;;5085301;28;20446;-78
2023/09/06 06:33:36;;;;;;;1999.90;999.90;;;12.80;82.70;;;;;;5084594;28;20056;-79
2023/09/06 06:36:01;;;;;;;1999.90;999.90;;;12.80;82.40;;;;;;5083790;28;20055;-78
2023/09/06 06:38:27;;;;;;;1999.90;999.90;;;12.80;83.80;;;;;;5084386;28;20036;-80
2023/09/06 06:40:52;;;;;;;1999.90;999.90;;;12.90;82.50;;;;;;5079321;28;20079;-80
2023/09/06 06:43:18;;;;;;;1999.90;999.90;;;13.00;81.80;;;;;;5084260;28;20043;-79
2023/09/06 06:45:52;;;;;;;1999.90;999.90;;;13.10;81.60;;;;;;5080301;28;20135;-80
2023/09/06 06:48:18;;;;;;;1999.90;999.90;;;13.20;82.10;;;;;;5076529;28;20106;-81
2023/09/06 06:50:44;;;;;;;1999.90;999.90;;;13.30;81.50;;;;;;5081502;28;20498;-77
2023/09/06 06:53:10;;;;;;;1999.90;999.90;;;13.40;81.20;;;;;;5086420;28;20481;-81
2023/09/06 06:55:37;;;;;;;1999.90;999.90;;;13.40;80.70;;;;;;5083143;28;20052;-80
2023/09/06 06:58:03;;;;;;;1999.90;999.90;;;13.50;81.30;;;;;;5079641;28;20520;-82
2023/09/06 07:04:28;;;;;;;1999.90;999.90;;;13.70;81.40;;;;;;5077979;28;21010;-80
2023/09/06 07:06:54;;;;;;;1999.90;999.90;;;13.80;80.80;;;;;;5079926;28;20486;-82
2023/09/06 07:09:19;;;;;;;1999.90;999.90;;;13.80;79.90;;;;;;5083206;28;20047;-78
2023/09/06 07:11:46;;;;;;;1999.90;999.90;;;13.80;80.70;;;;;;5082293;28;20082;-78
2023/09/06 07:14:12;;;;;;;1999.90;999.90;;;13.90;79.70;;;;;;5086020;28;20551;-78
2023/09/06 07:16:39;;;;;;;1999.90;999.90;;;13.90;80.50;;;;;;5081629;28;20044;-81
2023/09/06 07:19:05;;;;;;;1999.90;999.90;;;14.00;79.40;;;;;;5081739;28;20033;-80
2023/09/06 07:21:31;;;;;;;1999.90;999.90;;;14.20;79.50;;;;;;5080490;28;20037;-79
2023/09/06 07:23:56;;;;;;;1999.90;999.90;;;14.40;79.80;;;;;;5080884;28;20043;-80
2023/09/06 07:26:22;;;;;;;1999.90;999.90;;;14.40;78.50;;;;;;5083219;28;20481;-79
2023/09/06 07:28:48;;;;;;;1999.90;999.90;;;14.60;78.90;;;;;;5083758;28;20040;-80
2023/09/06 07:31:14;;;;;;;1999.90;999.90;;;14.60;77.70;;;;;;5084394;28;20036;-78
2023/09/06 07:33:40;;;;;;;1999.90;999.90;;;14.70;77.70;;;;;;5086862;28;20035;-79
2023/09/06 07:36:06;;;;;;;1999.90;999.90;;;14.80;78.20;;;;;;5082520;28;20028;-79
2023/09/06 07:38:32;;;;;;;1999.90;999.90;;;15.00;77.40;;;;;;5090241;28;20050;-79
2023/09/06 07:41:04;;;;;;;1999.90;999.90;;;15.20;76.90;;;;;;5085555;28;20462;-79
2023/09/06 07:43:31;;;;;;;1999.90;999.90;;;15.10;76.70;;;;;;5088738;28;20035;-82
2023/09/06 07:46:01;;;;;;;1999.90;999.90;;;15.20;76.80;;;;;;5088616;28;20059;-80
2023/09/06 07:48:30;;;;;;;1999.90;999.90;;;15.40;76.80;;;;;;5086051;28;20036;-79
2023/09/06 07:50:56;;;;;;;1999.90;999.90;;;15.60;75.40;;;;;;5091217;28;20083;-78
2023/09/06 07:53:23;;;;;;;1999.90;999.90;;;15.60;76.20;;;;;;5086184;28;20176;-80
2023/09/06 07:55:50;;;;;;;1999.90;999.90;;;15.80;75.60;;;;;;5085515;28;20024;-83
2023/09/06 07:58:16;;;;;;;1999.90;999.90;;;15.90;73.80;;;;;;5087995;28;20044;-80
2023/09/06 08:00:43;;;;;;;1999.90;999.90;;;16.00;74.50;;;;;;5084790;28;20024;-83
2023/09/06 08:03:09;;;;;;;1999.90;999.90;;;16.10;74.40;;;;;;5088336;28;20054;-79
2023/09/06 08:05:35;;;;;;;1999.90;999.90;;;16.30;74.50;;;;;;5086274;28;20040;-80
2023/09/06 08:08:02;;;;;;;1999.90;999.90;;;16.00;74.20;;;;;;5085398;28;20093;-80
2023/09/06 08:10:28;;;;;;;1999.90;999.90;;;16.10;73.70;;;;;;5082431;28;20040;-82
2023/09/06 08:12:54;;;;;;;1999.90;999.90;;;16.30;74.00;;;;;;5079948;28;20505;-79
2023/09/06 08:15:19;;;;;;;1999.90;999.90;;;16.50;73.30;;;;;;5086526;28;20050;-80
2023/09/06 08:17:47;;;;;;;1999.90;999.90;;;16.70;73.10;;;;;;5088054;28;20136;-80
2023/09/06 08:20:14;;;;;;;1999.90;999.90;;;16.80;74.10;;;;;;5084117;28;20148;-78
2023/09/06 08:22:41;;;;;;;1999.90;999.90;;;17.00;71.90;;;;;;5083171;28;20525;-80
2023/09/06 08:25:07;;;;;;;1999.90;999.90;;;17.10;72.30;;;;;;5087077;28;20039;-78
2023/09/06 08:27:32;;;;;;;1999.90;999.90;;;17.30;72.50;;;;;;5085538;28;20379;-79
2023/09/06 08:29:58;;;;;;;1999.90;999.90;;;17.50;71.20;;;;;;5081234;28;20465;-78
2023/09/06 08:32:24;;;;;;;1999.90;999.90;;;17.60;70.40;;;;;;5085078;28;20033;-80
2023/09/06 08:34:50;;;;;;;1999.90;999.90;;;17.70;70.40;;;;;;5091417;28;20101;-82
2023/09/06 08:37:15;;;;;;;1999.90;999.90;;;17.90;70.50;;;;;;5088306;28;20035;-79
2023/09/06 08:39:41;;;;;;;1999.90;999.90;;;18.10;68.90;;;;;;5084949;28;20060;-78
2023/09/06 08:42:07;;;;;;;1999.90;999.90;;;18.10;69.40;;;;;;5087619;28;20028;-79
2023/09/06 08:44:35;;;;;;;1999.90;999.90;;;18.10;68.90;;;;;;5087803;28;20024;-79
2023/09/06 08:47:05;;;;;;;1999.90;999.90;;;18.30;68.40;;;;;;5086244;28;20041;-78
2023/09/06 08:49:31;;;;;;;1999.90;999.90;;;18.60;68.90;;;;;;5083889;28;20040;-79
2023/09/06 08:52:00;;;;;;;1999.90;999.90;;;18.80;66.10;;;;;;5084942;28;20044;-80
2023/09/06 08:54:27;;;;;;;1999.90;999.90;;;19.00;65.40;;;;;;5081366;28;20079;-78
2023/09/06 08:56:53;;;;;;;1999.90;999.90;;;19.00;66.10;;;;;;5086541;28;20032;-79
2023/09/06 08:59:20;;;;;;;1999.90;999.90;;;19.00;66.50;;;;;;5084396;28;20078;-79
2023/09/06 09:01:46;;;;;;;1999.90;999.90;;;19.30;65.90;;;;;;5081890;28;20020;-78
2023/09/06 09:04:12;;;;;;;1999.90;999.90;;;19.50;66.10;;;;;;5087157;28;20051;-81
2023/09/06 09:06:44;;;;;;;1999.90;999.90;;;19.70;65.40;;;;;;5085229;28;20048;-75
2023/09/06 09:09:17;;;;;;;1999.90;999.90;;;19.80;65.50;;;;;;5084885;28;20858;-79
2023/09/06 09:11:51;;;;;;;1999.90;999.90;;;19.90;66.70;;;;;;5080940;28;20051;-76
2023/09/06 09:14:24;;;;;;;1999.90;999.90;;;20.10;64.60;;;;;;5087671;28;20067;-79
2023/09/06 09:16:59;;;;;;;1999.90;999.90;;;20.30;63.70;;;;;;5086324;28;20099;-78
2023/09/06 09:19:26;;;;;;;1999.90;999.90;;;20.10;65.10;;;;;;5082599;28;20082;-77
2023/09/06 09:21:55;;;;;;;1999.90;999.90;;;20.00;63.80;;;;;;5085990;28;20387;-79
2023/09/06 09:24:30;;;;;;;1999.90;999.90;;;20.30;63.50;;;;;;5080064;28;20150;-78
2023/09/06 09:26:59;;;;;;;1999.90;999.90;;;20.30;64.10;;;;;;5081394;28;20084;-79
2023/09/06 09:29:27;;;;;;;1999.90;999.90;;;20.60;64.10;;;;;;5083066;28;20063;-80
2023/09/06 09:31:53;;;;;;;1999.90;999.90;;;20.70;65.50;;;;;;5086089;28;20032;-78
2023/09/06 09:34:18;;;;;;;1999.90;999.90;;;21.00;62.70;;;;;;5088690;28;20398;-76
2023/09/06 09:36:51;;;;;;;1999.90;999.90;;;20.80;61.90;;;;;;5089026;28;20041;-76
2023/09/06 09:39:18;;;;;;;1999.90;999.90;;;21.20;61.70;;;;;;5086274;28;20032;-78
2023/09/06 09:41:44;;;;;;;1999.90;999.90;;;21.60;60.70;;;;;;5086712;28;20225;-76
2023/09/06 09:44:14;;;;;;;1999.90;999.90;;;21.40;61.60;;;;;;5080096;28;20039;-76
2023/09/06 09:46:43;;;;;;;1999.90;999.90;;;21.30;61.30;;;;;;5084106;28;20513;-76
2023/09/06 09:49:11;;;;;;;1999.90;999.90;;;21.60;59.90;;;;;;5082217;28;20111;-77
2023/09/06 09:51:40;;;;;;;1999.90;999.90;;;21.80;62.30;;;;;;5086690;28;20085;-77
2023/09/06 09:54:08;;;;;;;1999.90;999.90;;;22.10;59.60;;;;;;5083137;28;20048;-77
2023/09/06 09:56:36;;;;;;;1999.90;999.90;;;22.40;60.10;;;;;;5084330;28;20081;-77
2023/09/06 09:59:03;;;;;;;1999.90;999.90;;;22.40;57.90;;;;;;5079459;28;20036;-77
2023/09/06 10:01:30;;;;;;;1999.90;999.90;;;22.50;59.60;;;;;;5086084;28;20028;-76
2023/09/06 10:03:57;;;;;;;1999.90;999.90;;;22.80;59.00;;;;;;5083394;28;20152;-77
2023/09/06 10:06:26;;;;;;;1999.90;999.90;;;22.70;57.90;;;;;;5084760;28;20024;-77
2023/09/06 10:08:57;;;;;;;1999.90;999.90;;;22.70;57.50;;;;;;5087604;28;20036;-76
2023/09/06 10:11:23;;;;;;;;;;;22.60;56.30;;;;;;5085022;28;20032;-76
2023/09/06 10:13:49;;;;;;;1999.90;999.90;;;22.50;57.70;;;;;;5082441;28;19923;-76
2023/09/06 10:16:15;;;;;;;1999.90;999.90;;;22.60;58.50;;;;;;5085971;28;20056;-77
2023/09/06 10:18:42;;;;;;;1999.90;999.90;;;23.00;57.50;;;;;;5083586;28;20032;-77
2023/09/06 10:21:07;;;;;;;1999.90;999.90;;;23.30;55.20;;;;;;5084219;28;20074;-76
2023/09/06 10:23:41;;;;;;;1999.90;999.90;;;23.30;55.20;;;;;;5084636;28;20070;-76
2023/09/06 10:26:06;;;;;;;1999.90;999.90;;;23.20;56.70;;;;;;5084324;28;20024;-76
2023/09/06 10:28:33;;;;;;;1999.90;999.90;;;23.40;55.50;;;;;;5082998;28;20035;-77
2023/09/06 10:31:07;;;;;;;1999.90;999.90;;;23.90;54.80;;;;;;5083879;28;20055;-76
2023/09/06 10:33:35;;;;;;;1999.90;999.90;;;23.90;54.40;;;;;;5084927;28;20036;-77
2023/09/06 10:36:15;;;;;;;1999.90;999.90;;;23.10;53.70;;;;;;5080921;28;20752;-77
2023/09/06 10:38:57;;;;;;;1999.90;999.90;;;23.40;53.90;;;;;;5080477;28;20498;-76
2023/09/06 10:41:24;;;;;;;1999.90;999.90;;;23.60;55.80;;;;;;5086703;28;20498;-75
2023/09/06 10:43:55;;;;;;;1999.90;999.90;;;23.80;54.20;;;;;;5076881;28;20071;-73
2023/09/06 10:46:26;;;;;;;1999.90;999.90;;;24.10;54.30;;;;;;5087360;28;20028;-75
2023/09/06 10:49:11;;;;;;;1999.90;999.90;;;24.70;52.20;;;;;;5078352;28;20063;-74
2023/09/06 10:51:59;;;;;;;1999.90;999.90;;;25.00;52.50;;;;;;5080919;28;20082;-75
2023/09/06 10:54:34;;;;;;;1999.90;999.90;;;25.00;49.80;;;;;;5084562;28;20079;-74
2023/09/06 10:57:05;;;;;;;1999.90;999.90;;;25.60;48.20;;;;;;5077861;28;20059;-75
2023/09/06 10:59:33;;;;;;;1999.90;999.90;;;26.00;47.50;;;;;;5085214;28;20035;-75
2023/09/06 11:02:28;;;;;;;1999.90;999.90;;;25.90;46.90;;;;;;5082961;28;20048;-75
2023/09/06 11:05:14;;;;;;;1999.90;999.90;;;26.00;47.70;;;;;;5081849;28;20034;-74
2023/09/06 11:07:44;;;;;;;1999.90;999.90;;;26.50;45.60;;;;;;5079769;28;20040;-74
2023/09/06 11:10:10;;;;;;;;;;;26.60;45.00;;;;;;5079273;28;20487;-74
2023/09/06 11:12:37;;;;;;;1999.90;999.90;;;26.90;43.80;;;;;;5082301;28;19934;-75
2023/09/06 11:15:05;;;;;;;1999.90;999.90;;;26.70;44.70;;;;;;5079925;28;20040;-75
2023/09/06 11:17:31;;;;;;;1999.90;999.90;;;27.60;43.30;;;;;;5090287;28;20059;-75
2023/09/06 11:20:10;;;;;;;1999.90;999.90;;;26.80;45.60;;;;;;5088057;28;20028;-75
2023/09/06 11:22:35;;;;;;;1999.90;999.90;;;27.50;43.70;;;;;;5085223;28;20033;-75
2023/09/06 11:25:01;;;;;;;1999.90;999.90;;;28.10;42.20;;;;;;5085381;28;20437;-75
2023/09/06 11:27:33;;;;;;;1999.90;999.90;;;28.10;40.90;;;;;;5087981;28;20494;-75
2023/09/06 11:30:10;;;;;;;1999.90;999.90;;;27.90;42.50;;;;;;5079126;28;20040;-75
2023/09/06 11:32:36;;;;;;;1999.90;999.90;;;27.70;42.00;;;;;;5086608;28;20039;-75
2023/09/06 11:35:08;;;;;;;1999.90;999.90;;;27.60;43.80;;;;;;5086808;28;20483;-75
2023/09/06 11:37:38;;;;;;;1999.90;999.90;;;27.90;42.00;;;;;;5086040;28;20111;-75
2023/09/06 11:40:13;;;;;;;1999.90;999.90;;;27.70;42.10;;;;;;5085107;28;20082;-74
2023/09/06 11:42:40;;;;;;;1999.90;999.90;;;28.50;41.70;;;;;;5087515;28;20047;-74
2023/09/06 11:45:09;;;;;;;1999.90;999.90;;;28.70;39.10;;;;;;5086080;28;20089;-74
2023/09/06 11:47:37;;;;;;;1999.90;999.90;;;28.80;39.40;;;;;;5082476;28;20036;-72
2023/09/06 11:50:06;;;;;;;1999.90;999.90;;;29.00;38.80;;;;;;5083560;28;20101;-72
2023/09/06 11:52:33;;;;;;;1999.90;999.90;;;28.30;40.60;;;;;;5088229;28;20044;-72
2023/09/06 11:55:08;;;;;;;1999.90;999.90;;;28.60;40.00;;;;;;5084781;28;20667;-72
2023/09/06 11:57:37;;;;;;;1999.90;999.90;;;28.30;40.00;;;;;;5079412;28;20036;-72
2023/09/06 12:00:25;;;;;;;1999.90;999.90;;;28.50;41.60;;;;;;5087037;28;20024;-72
2023/09/06 12:02:51;;;;;;;1999.90;999.90;;;29.00;38.70;;;;;;5085251;28;20035;-72
2023/09/06 12:05:23;;;;;;;1999.90;999.90;;;29.30;38.80;;;;;;5081085;28;20044;-72
2023/09/06 12:07:49;;;;;;;1999.90;999.90;;;29.70;36.80;;;;;;5085276;28;20035;-72
2023/09/06 12:10:20;;;;;;;1999.90;999.90;;;29.30;36.70;;;;;;5080887;28;20036;-72